sensor_id;sensor_type;location;lat;lon;timestamp;temperature;humidity
44111;DHT22;29774;52.664;5.074;2023-08-06T00:01:49;18.20;78.00
44111;DHT22;29774;52.664;5.074;2023-08-06T00:04:14;18.30;77.80
44111;DHT22;29774;52.664;5.074;2023-08-06T00:06:40;18.30;77.60
44111;DHT22;29774;52.664;5.074;2023-08-06T00:09:06;18.20;77.50
44111;DHT22;29774;52.664;5.074;2023-08-06T00:11:31;18.30;77.30
44111;DHT22;29774;52.664;5.074;2023-08-06T00:13:57;18.30;77.50
44111;DHT22;29774;52.664;5.074;2023-08-06T00:16:23;18.30;77.20
44111;DHT22;29774;52.664;5.074;2023-08-06T00:18:48;18.20;77.40
44111;DHT22;29774;52.664;5.074;2023-08-06T00:21:14;18.20;77.80
44111;DHT22;29774;52.664;5.074;2023-08-06T00:23:40;18.20;77.90
44111;DHT22;29774;52.664;5.074;2023-08-06T00:26:06;18.20;77.70
44111;DHT22;29774;52.664;5.074;2023-08-06T00:28:31;18.30;77.40
44111;DHT22;29774;52.664;5.074;2023-08-06T00:30:57;18.20;77.70
44111;DHT22;29774;52.664;5.074;2023-08-06T00:33:23;18.10;77.80
44111;DHT22;29774;52.664;5.074;2023-08-06T00:35:49;18.20;77.80
44111;DHT22;29774;52.664;5.074;2023-08-06T00:38:15;18.20;78.10
44111;DHT22;29774;52.664;5.074;2023-08-06T00:40:40;18.20;77.90
44111;DHT22;29774;52.664;5.074;2023-08-06T00:43:06;18.30;77.50
44111;DHT22;29774;52.664;5.074;2023-08-06T00:45:35;18.20;78.20
44111;DHT22;29774;52.664;5.074;2023-08-06T00:48:03;18.20;78.20
44111;DHT22;29774;52.664;5.074;2023-08-06T00:50:30;18.20;77.80
44111;DHT22;29774;52.664;5.074;2023-08-06T00:52:56;18.20;78.10
44111;DHT22;29774;52.664;5.074;2023-08-06T00:55:22;18.20;78.10
44111;DHT22;29774;52.664;5.074;2023-08-06T00:57:48;18.10;78.00
44111;DHT22;29774;52.664;5.074;2023-08-06T01:00:14;18.00;78.60
44111;DHT22;29774;52.664;5.074;2023-08-06T01:02:39;18.00;78.80
44111;DHT22;29774;52.664;5.074;2023-08-06T01:05:05;18.10;78.50
44111;DHT22;29774;52.664;5.074;2023-08-06T01:13:33;18.00;78.50
44111;DHT22;29774;52.664;5.074;2023-08-06T01:16:03;18.00;78.70
44111;DHT22;29774;52.664;5.074;2023-08-06T01:18:31;18.00;78.70
44111;DHT22;29774;52.664;5.074;2023-08-06T01:20:57;18.00;78.50
44111;DHT22;29774;52.664;5.074;2023-08-06T01:23:23;18.20;78.10
44111;DHT22;29774;52.664;5.074;2023-08-06T01:26:10;18.20;77.60
44111;DHT22;29774;52.664;5.074;2023-08-06T01:31:37;18.00;78.40
44111;DHT22;29774;52.664;5.074;2023-08-06T01:34:06;18.00;78.40
44111;DHT22;29774;52.664;5.074;2023-08-06T01:36:32;17.90;78.70
44111;DHT22;29774;52.664;5.074;2023-08-06T01:38:59;17.90;78.70
44111;DHT22;29774;52.664;5.074;2023-08-06T01:41:25;18.10;78.20
44111;DHT22;29774;52.664;5.074;2023-08-06T01:43:50;18.00;78.40
44111;DHT22;29774;52.664;5.074;2023-08-06T01:46:16;17.90;78.60
44111;DHT22;29774;52.664;5.074;2023-08-06T01:48:41;17.80;79.00
44111;DHT22;29774;52.664;5.074;2023-08-06T01:51:07;17.90;78.90
44111;DHT22;29774;52.664;5.074;2023-08-06T01:53:33;17.80;79.00
44111;DHT22;29774;52.664;5.074;2023-08-06T01:55:59;18.00;78.70
44111;DHT22;29774;52.664;5.074;2023-08-06T01:58:24;18.00;78.30
44111;DHT22;29774;52.664;5.074;2023-08-06T02:00:50;18.00;78.50
44111;DHT22;29774;52.664;5.074;2023-08-06T02:03:16;18.10;78.10
44111;DHT22;29774;52.664;5.074;2023-08-06T02:05:41;18.00;78.30
44111;DHT22;29774;52.664;5.074;2023-08-06T02:08:07;17.90;78.60
44111;DHT22;29774;52.664;5.074;2023-08-06T02:10:33;17.90;78.70
44111;DHT22;29774;52.664;5.074;2023-08-06T02:12:59;18.20;77.80
44111;DHT22;29774;52.664;5.074;2023-08-06T02:15:24;18.00;78.10
44111;DHT22;29774;52.664;5.074;2023-08-06T02:17:50;18.00;78.40
44111;DHT22;29774;52.664;5.074;2023-08-06T02:20:16;18.00;78.30
44111;DHT22;29774;52.664;5.074;2023-08-06T02:22:41;18.00;78.30
44111;DHT22;29774;52.664;5.074;2023-08-06T02:25:07;18.00;78.20
44111;DHT22;29774;52.664;5.074;2023-08-06T02:27:33;18.30;77.50
44111;DHT22;29774;52.664;5.074;2023-08-06T02:29:58;18.30;77.00
44111;DHT22;29774;52.664;5.074;2023-08-06T02:32:24;18.50;76.80
44111;DHT22;29774;52.664;5.074;2023-08-06T02:34:49;18.50;76.60
44111;DHT22;29774;52.664;5.074;2023-08-06T02:37:15;18.70;76.00
44111;DHT22;29774;52.664;5.074;2023-08-06T02:39:41;18.80;75.60
44111;DHT22;29774;52.664;5.074;2023-08-06T02:42:07;19.00;75.10
44111;DHT22;29774;52.664;5.074;2023-08-06T02:44:33;18.60;76.00
44111;DHT22;29774;52.664;5.074;2023-08-06T02:46:59;18.60;76.10
44111;DHT22;29774;52.664;5.074;2023-08-06T02:49:25;18.60;76.50
44111;DHT22;29774;52.664;5.074;2023-08-06T02:51:50;18.80;75.60
44111;DHT22;29774;52.664;5.074;2023-08-06T02:54:18;18.90;75.20
44111;DHT22;29774;52.664;5.074;2023-08-06T02:56:44;18.80;75.30
44111;DHT22;29774;52.664;5.074;2023-08-06T02:59:13;18.70;76.00
44111;DHT22;29774;52.664;5.074;2023-08-06T03:01:39;18.70;75.90
44111;DHT22;29774;52.664;5.074;2023-08-06T03:04:05;18.80;75.40
44111;DHT22;29774;52.664;5.074;2023-08-06T03:06:30;18.70;75.90
44111;DHT22;29774;52.664;5.074;2023-08-06T03:08:56;18.30;77.00
44111;DHT22;29774;52.664;5.074;2023-08-06T03:11:21;18.40;77.00
44111;DHT22;29774;52.664;5.074;2023-08-06T03:13:48;18.80;75.70
44111;DHT22;29774;52.664;5.074;2023-08-06T03:16:14;18.80;75.40
44111;DHT22;29774;52.664;5.074;2023-08-06T03:18:39;18.70;76.00
44111;DHT22;29774;52.664;5.074;2023-08-06T03:21:05;18.40;77.00
44111;DHT22;29774;52.664;5.074;2023-08-06T03:23:31;18.70;76.30
44111;DHT22;29774;52.664;5.074;2023-08-06T03:26:03;18.90;75.20
44111;DHT22;29774;52.664;5.074;2023-08-06T03:28:29;18.90;75.30
44111;DHT22;29774;52.664;5.074;2023-08-06T03:31:04;18.70;75.70
44111;DHT22;29774;52.664;5.074;2023-08-06T03:33:30;18.60;76.10
44111;DHT22;29774;52.664;5.074;2023-08-06T03:35:56;18.40;76.70
44111;DHT22;29774;52.664;5.074;2023-08-06T03:38:22;18.30;77.10
44111;DHT22;29774;52.664;5.074;2023-08-06T03:40:48;18.60;76.40
44111;DHT22;29774;52.664;5.074;2023-08-06T03:43:14;19.10;74.60
44111;DHT22;29774;52.664;5.074;2023-08-06T03:45:40;19.00;74.40
44111;DHT22;29774;52.664;5.074;2023-08-06T03:48:06;18.80;75.10
44111;DHT22;29774;52.664;5.074;2023-08-06T03:50:32;18.50;76.20
44111;DHT22;29774;52.664;5.074;2023-08-06T03:52:57;18.70;75.70
44111;DHT22;29774;52.664;5.074;2023-08-06T03:55:23;18.70;75.90
44111;DHT22;29774;52.664;5.074;2023-08-06T03:57:49;18.70;75.60
44111;DHT22;29774;52.664;5.074;2023-08-06T04:00:14;18.70;75.80
44111;DHT22;29774;52.664;5.074;2023-08-06T04:02:40;18.90;75.10
44111;DHT22;29774;52.664;5.074;2023-08-06T04:05:06;19.00;75.00
44111;DHT22;29774;52.664;5.074;2023-08-06T04:07:31;18.70;75.60
44111;DHT22;29774;52.664;5.074;2023-08-06T04:09:59;19.00;74.80
44111;DHT22;29774;52.664;5.074;2023-08-06T04:12:26;19.10;74.60
44111;DHT22;29774;52.664;5.074;2023-08-06T04:14:52;19.10;74.10
44111;DHT22;29774;52.664;5.074;2023-08-06T04:17:19;18.80;75.10
44111;DHT22;29774;52.664;5.074;2023-08-06T04:19:55;18.90;74.90
44111;DHT22;29774;52.664;5.074;2023-08-06T04:22:24;18.70;75.40
44111;DHT22;29774;52.664;5.074;2023-08-06T04:24:50;19.00;74.90
44111;DHT22;29774;52.664;5.074;2023-08-06T04:27:16;19.10;74.00
44111;DHT22;29774;52.664;5.074;2023-08-06T04:29:42;19.00;74.10
44111;DHT22;29774;52.664;5.074;2023-08-06T04:32:09;18.80;75.00
44111;DHT22;29774;52.664;5.074;2023-08-06T04:34:35;18.70;75.30
44111;DHT22;29774;52.664;5.074;2023-08-06T04:37:01;19.10;74.40
44111;DHT22;29774;52.664;5.074;2023-08-06T04:39:27;18.90;74.70
44111;DHT22;29774;52.664;5.074;2023-08-06T04:41:53;19.00;74.50
44111;DHT22;29774;52.664;5.074;2023-08-06T04:44:19;19.00;74.60
44111;DHT22;29774;52.664;5.074;2023-08-06T04:46:45;18.80;75.10
44111;DHT22;29774;52.664;5.074;2023-08-06T04:49:11;18.80;75.10
44111;DHT22;29774;52.664;5.074;2023-08-06T04:51:37;18.80;75.10
44111;DHT22;29774;52.664;5.074;2023-08-06T04:54:02;18.90;74.90
44111;DHT22;29774;52.664;5.074;2023-08-06T04:56:28;18.80;75.10
44111;DHT22;29774;52.664;5.074;2023-08-06T04:58:54;18.90;74.80
44111;DHT22;29774;52.664;5.074;2023-08-06T05:01:19;19.10;74.30
44111;DHT22;29774;52.664;5.074;2023-08-06T05:03:47;19.00;74.50
44111;DHT22;29774;52.664;5.074;2023-08-06T05:06:12;18.50;76.10
44111;DHT22;29774;52.664;5.074;2023-08-06T05:08:38;18.50;76.10
44111;DHT22;29774;52.664;5.074;2023-08-06T05:11:04;18.50;76.20
44111;DHT22;29774;52.664;5.074;2023-08-06T05:13:29;18.40;76.50
44111;DHT22;29774;52.664;5.074;2023-08-06T05:15:55;18.70;75.60
44111;DHT22;29774;52.664;5.074;2023-08-06T05:18:21;18.80;75.10
44111;DHT22;29774;52.664;5.074;2023-08-06T05:20:46;19.00;74.70
44111;DHT22;29774;52.664;5.074;2023-08-06T05:23:12;19.10;74.00
44111;DHT22;29774;52.664;5.074;2023-08-06T05:25:38;18.90;74.80
44111;DHT22;29774;52.664;5.074;2023-08-06T05:28:04;18.70;75.40
44111;DHT22;29774;52.664;5.074;2023-08-06T05:30:29;19.00;74.90
44111;DHT22;29774;52.664;5.074;2023-08-06T05:32:55;19.30;73.60
44111;DHT22;29774;52.664;5.074;2023-08-06T05:35:22;19.20;73.60
44111;DHT22;29774;52.664;5.074;2023-08-06T05:37:47;19.00;74.50
44111;DHT22;29774;52.664;5.074;2023-08-06T05:40:13;18.80;75.20
44111;DHT22;29774;52.664;5.074;2023-08-06T05:42:40;19.00;74.70
44111;DHT22;29774;52.664;5.074;2023-08-06T05:45:05;18.80;75.30
44111;DHT22;29774;52.664;5.074;2023-08-06T05:47:31;19.20;74.30
44111;DHT22;29774;52.664;5.074;2023-08-06T05:49:57;19.10;74.00
44111;DHT22;29774;52.664;5.074;2023-08-06T05:52:22;19.20;74.00
44111;DHT22;29774;52.664;5.074;2023-08-06T05:54:48;19.30;73.50
44111;DHT22;29774;52.664;5.074;2023-08-06T05:57:14;19.30;73.30
44111;DHT22;29774;52.664;5.074;2023-08-06T05:59:40;19.30;73.50
44111;DHT22;29774;52.664;5.074;2023-08-06T06:02:06;19.40;73.20
44111;DHT22;29774;52.664;5.074;2023-08-06T06:04:32;19.50;72.90
44111;DHT22;29774;52.664;5.074;2023-08-06T06:06:57;19.20;73.70
44111;DHT22;29774;52.664;5.074;2023-08-06T06:09:23;19.10;74.20
44111;DHT22;29774;52.664;5.074;2023-08-06T06:11:48;18.80;75.00
44111;DHT22;29774;52.664;5.074;2023-08-06T06:14:18;18.80;75.40
44111;DHT22;29774;52.664;5.074;2023-08-06T06:16:45;18.80;75.40
44111;DHT22;29774;52.664;5.074;2023-08-06T06:19:11;19.10;74.70
44111;DHT22;29774;52.664;5.074;2023-08-06T06:21:36;19.10;74.20
44111;DHT22;29774;52.664;5.074;2023-08-06T06:24:03;19.20;73.90
44111;DHT22;29774;52.664;5.074;2023-08-06T06:26:30;19.30;73.20
44111;DHT22;29774;52.664;5.074;2023-08-06T06:28:56;19.10;74.30
44111;DHT22;29774;52.664;5.074;2023-08-06T06:31:21;19.10;74.20
44111;DHT22;29774;52.664;5.074;2023-08-06T06:33:47;19.10;74.40
44111;DHT22;29774;52.664;5.074;2023-08-06T06:36:13;19.00;74.60
44111;DHT22;29774;52.664;5.074;2023-08-06T06:38:38;19.00;74.50
44111;DHT22;29774;52.664;5.074;2023-08-06T06:41:04;19.20;74.10
44111;DHT22;29774;52.664;5.074;2023-08-06T06:43:30;19.40;73.20
44111;DHT22;29774;52.664;5.074;2023-08-06T06:45:56;19.50;73.10
44111;DHT22;29774;52.664;5.074;2023-08-06T06:48:23;19.50;73.10
44111;DHT22;29774;52.664;5.074;2023-08-06T06:50:49;19.30;73.50
44111;DHT22;29774;52.664;5.074;2023-08-06T06:53:14;19.40;73.20
44111;DHT22;29774;52.664;5.074;2023-08-06T06:55:40;19.60;72.60
44111;DHT22;29774;52.664;5.074;2023-08-06T06:58:06;19.40;73.00
44111;DHT22;29774;52.664;5.074;2023-08-06T07:00:31;19.20;73.70
44111;DHT22;29774;52.664;5.074;2023-08-06T07:02:57;19.30;73.60
44111;DHT22;29774;52.664;5.074;2023-08-06T07:05:22;19.30;73.70
44111;DHT22;29774;52.664;5.074;2023-08-06T07:07:48;19.60;72.60
44111;DHT22;29774;52.664;5.074;2023-08-06T07:10:13;19.70;72.50
44111;DHT22;29774;52.664;5.074;2023-08-06T07:12:39;19.80;71.90
44111;DHT22;29774;52.664;5.074;2023-08-06T07:15:06;19.90;71.50
44111;DHT22;29774;52.664;5.074;2023-08-06T07:17:31;19.90;71.30
44111;DHT22;29774;52.664;5.074;2023-08-06T07:19:57;19.90;71.50
44111;DHT22;29774;52.664;5.074;2023-08-06T07:22:23;20.00;71.40
44111;DHT22;29774;52.664;5.074;2023-08-06T07:24:48;20.00;71.40
44111;DHT22;29774;52.664;5.074;2023-08-06T07:27:14;19.90;71.80
44111;DHT22;29774;52.664;5.074;2023-08-06T07:29:39;19.80;71.90
44111;DHT22;29774;52.664;5.074;2023-08-06T07:32:06;19.70;72.40
44111;DHT22;29774;52.664;5.074;2023-08-06T07:34:32;19.60;72.80
44111;DHT22;29774;52.664;5.074;2023-08-06T07:36:58;19.60;72.70
44111;DHT22;29774;52.664;5.074;2023-08-06T07:39:24;19.50;72.90
44111;DHT22;29774;52.664;5.074;2023-08-06T07:41:49;19.50;73.20
44111;DHT22;29774;52.664;5.074;2023-08-06T07:44:15;19.70;72.50
44111;DHT22;29774;52.664;5.074;2023-08-06T07:46:41;19.80;71.90
44111;DHT22;29774;52.664;5.074;2023-08-06T07:49:07;19.50;72.80
44111;DHT22;29774;52.664;5.074;2023-08-06T07:51:32;19.50;73.10
44111;DHT22;29774;52.664;5.074;2023-08-06T07:53:58;19.60;72.60
44111;DHT22;29774;52.664;5.074;2023-08-06T07:56:23;19.70;72.60
44111;DHT22;29774;52.664;5.074;2023-08-06T07:58:49;19.60;72.50
44111;DHT22;29774;52.664;5.074;2023-08-06T08:01:15;19.80;72.10
44111;DHT22;29774;52.664;5.074;2023-08-06T08:03:40;19.90;71.80
44111;DHT22;29774;52.664;5.074;2023-08-06T08:06:06;20.10;71.30
44111;DHT22;29774;52.664;5.074;2023-08-06T08:08:31;20.00;71.10
44111;DHT22;29774;52.664;5.074;2023-08-06T08:10:57;19.80;71.80
44111;DHT22;29774;52.664;5.074;2023-08-06T08:13:24;19.50;72.90
44111;DHT22;29774;52.664;5.074;2023-08-06T08:15:50;19.30;73.60
44111;DHT22;29774;52.664;5.074;2023-08-06T08:18:15;19.60;72.60
44111;DHT22;29774;52.664;5.074;2023-08-06T08:20:41;19.60;72.50
44111;DHT22;29774;52.664;5.074;2023-08-06T08:23:07;19.50;72.80
44111;DHT22;29774;52.664;5.074;2023-08-06T08:25:32;19.70;72.20
44111;DHT22;29774;52.664;5.074;2023-08-06T08:27:59;19.60;72.60
44111;DHT22;29774;52.664;5.074;2023-08-06T08:30:25;19.70;72.30
44111;DHT22;29774;52.664;5.074;2023-08-06T08:32:51;19.60;72.40
44111;DHT22;29774;52.664;5.074;2023-08-06T08:35:16;19.40;73.10
44111;DHT22;29774;52.664;5.074;2023-08-06T08:37:43;19.70;72.20
44111;DHT22;29774;52.664;5.074;2023-08-06T08:40:09;19.50;72.50
44111;DHT22;29774;52.664;5.074;2023-08-06T08:42:36;19.50;72.90
44111;DHT22;29774;52.664;5.074;2023-08-06T08:45:04;19.30;73.40
44111;DHT22;29774;52.664;5.074;2023-08-06T08:47:31;19.30;73.80
44111;DHT22;29774;52.664;5.074;2023-08-06T08:49:57;19.60;72.90
44111;DHT22;29774;52.664;5.074;2023-08-06T08:52:25;19.80;72.10
44111;DHT22;29774;52.664;5.074;2023-08-06T08:54:51;19.70;72.20
44111;DHT22;29774;52.664;5.074;2023-08-06T08:57:19;19.60;72.70
44111;DHT22;29774;52.664;5.074;2023-08-06T08:59:45;19.60;72.60
44111;DHT22;29774;52.664;5.074;2023-08-06T09:02:12;19.30;73.40
44111;DHT22;29774;52.664;5.074;2023-08-06T09:04:39;19.70;72.40
44111;DHT22;29774;52.664;5.074;2023-08-06T09:07:05;19.80;71.90
44111;DHT22;29774;52.664;5.074;2023-08-06T09:09:34;19.50;72.70
44111;DHT22;29774;52.664;5.074;2023-08-06T09:12:10;19.60;72.60
44111;DHT22;29774;52.664;5.074;2023-08-06T09:14:36;19.70;72.20
44111;DHT22;29774;52.664;5.074;2023-08-06T09:17:04;19.80;71.80
44111;DHT22;29774;52.664;5.074;2023-08-06T09:19:30;19.70;71.90
44111;DHT22;29774;52.664;5.074;2023-08-06T09:21:56;19.60;72.30
44111;DHT22;29774;52.664;5.074;2023-08-06T09:24:22;19.80;71.90
44111;DHT22;29774;52.664;5.074;2023-08-06T09:26:48;19.80;71.90
44111;DHT22;29774;52.664;5.074;2023-08-06T09:29:14;19.70;72.30
44111;DHT22;29774;52.664;5.074;2023-08-06T09:31:46;19.80;71.90
44111;DHT22;29774;52.664;5.074;2023-08-06T09:34:19;19.80;71.80
44111;DHT22;29774;52.664;5.074;2023-08-06T09:36:49;19.80;71.80
44111;DHT22;29774;52.664;5.074;2023-08-06T09:39:27;19.80;71.70
44111;DHT22;29774;52.664;5.074;2023-08-06T09:41:59;19.80;71.80
44111;DHT22;29774;52.664;5.074;2023-08-06T09:44:26;20.00;71.10
44111;DHT22;29774;52.664;5.074;2023-08-06T09:46:57;19.80;71.60
44111;DHT22;29774;52.664;5.074;2023-08-06T09:51:52;20.20;70.70
44111;DHT22;29774;52.664;5.074;2023-08-06T09:54:22;20.00;71.10
44111;DHT22;29774;52.664;5.074;2023-08-06T09:56:48;20.00;71.00
44111;DHT22;29774;52.664;5.074;2023-08-06T09:59:14;20.00;70.90
44111;DHT22;29774;52.664;5.074;2023-08-06T10:01:41;20.10;70.70
44111;DHT22;29774;52.664;5.074;2023-08-06T10:04:07;19.90;71.10
44111;DHT22;29774;52.664;5.074;2023-08-06T10:06:34;19.90;71.30
44111;DHT22;29774;52.664;5.074;2023-08-06T10:09:02;20.20;70.60
44111;DHT22;29774;52.664;5.074;2023-08-06T10:11:28;20.20;70.60
44111;DHT22;29774;52.664;5.074;2023-08-06T10:14:09;20.20;70.40
44111;DHT22;29774;52.664;5.074;2023-08-06T10:16:38;20.20;70.70
44111;DHT22;29774;52.664;5.074;2023-08-06T10:19:05;20.10;70.90
44111;DHT22;29774;52.664;5.074;2023-08-06T10:21:32;20.10;70.80
44111;DHT22;29774;52.664;5.074;2023-08-06T10:23:57;20.10;70.70
44111;DHT22;29774;52.664;5.074;2023-08-06T10:26:30;20.20;70.60
44111;DHT22;29774;52.664;5.074;2023-08-06T10:28:55;20.20;70.60
44111;DHT22;29774;52.664;5.074;2023-08-06T10:32:14;20.00;70.80
44111;DHT22;29774;52.664;5.074;2023-08-06T10:34:59;20.20;70.50
44111;DHT22;29774;52.664;5.074;2023-08-06T10:37:36;20.10;70.70
44111;DHT22;29774;52.664;5.074;2023-08-06T10:40:03;20.10;70.60
44111;DHT22;29774;52.664;5.074;2023-08-06T10:42:29;20.20;70.40
44111;DHT22;29774;52.664;5.074;2023-08-06T10:47:38;20.20;70.30
44111;DHT22;29774;52.664;5.074;2023-08-06T10:50:10;20.30;70.10
44111;DHT22;29774;52.664;5.074;2023-08-06T10:52:36;20.30;70.00
44111;DHT22;29774;52.664;5.074;2023-08-06T10:55:02;20.20;70.10
44111;DHT22;29774;52.664;5.074;2023-08-06T10:57:28;20.20;70.10
44111;DHT22;29774;52.664;5.074;2023-08-06T10:59:53;20.20;70.20
44111;DHT22;29774;52.664;5.074;2023-08-06T11:02:19;20.30;70.10
44111;DHT22;29774;52.664;5.074;2023-08-06T11:04:45;20.20;70.30
44111;DHT22;29774;52.664;5.074;2023-08-06T11:07:10;20.20;70.50
44111;DHT22;29774;52.664;5.074;2023-08-06T11:09:37;20.20;70.10
44111;DHT22;29774;52.664;5.074;2023-08-06T11:12:05;20.20;70.20
44111;DHT22;29774;52.664;5.074;2023-08-06T11:14:32;20.30;69.90
44111;DHT22;29774;52.664;5.074;2023-08-06T11:16:57;20.10;70.30
44111;DHT22;29774;52.664;5.074;2023-08-06T11:19:23;20.20;70.30
44111;DHT22;29774;52.664;5.074;2023-08-06T11:21:51;20.20;70.00
44111;DHT22;29774;52.664;5.074;2023-08-06T11:24:17;20.30;69.70
44111;DHT22;29774;52.664;5.074;2023-08-06T11:26:43;20.30;69.80
44111;DHT22;29774;52.664;5.074;2023-08-06T11:29:10;20.20;69.90
44111;DHT22;29774;52.664;5.074;2023-08-06T11:31:36;20.20;70.10
44111;DHT22;29774;52.664;5.074;2023-08-06T11:34:02;20.30;70.00
44111;DHT22;29774;52.664;5.074;2023-08-06T11:36:36;20.30;69.80
44111;DHT22;29774;52.664;5.074;2023-08-06T11:39:03;20.30;69.80
44111;DHT22;29774;52.664;5.074;2023-08-06T11:41:33;20.20;70.10
44111;DHT22;29774;52.664;5.074;2023-08-06T11:44:01;20.10;70.40
44111;DHT22;29774;52.664;5.074;2023-08-06T11:46:28;20.20;70.30
44111;DHT22;29774;52.664;5.074;2023-08-06T11:48:57;20.20;70.30
44111;DHT22;29774;52.664;5.074;2023-08-06T11:51:26;20.20;70.00
44111;DHT22;29774;52.664;5.074;2023-08-06T11:53:56;20.20;70.10
44111;DHT22;29774;52.664;5.074;2023-08-06T11:56:22;20.20;70.20
44111;DHT22;29774;52.664;5.074;2023-08-06T11:58:48;20.20;70.10
44111;DHT22;29774;52.664;5.074;2023-08-06T12:01:14;20.20;70.10
44111;DHT22;29774;52.664;5.074;2023-08-06T12:03:40;20.20;70.20
44111;DHT22;29774;52.664;5.074;2023-08-06T12:06:06;20.10;70.40
44111;DHT22;29774;52.664;5.074;2023-08-06T12:08:32;20.20;70.20
44111;DHT22;29774;52.664;5.074;2023-08-06T12:10:58;20.20;70.20
44111;DHT22;29774;52.664;5.074;2023-08-06T12:13:24;20.20;70.10
44111;DHT22;29774;52.664;5.074;2023-08-06T12:15:50;20.20;70.40
44111;DHT22;29774;52.664;5.074;2023-08-06T12:18:18;20.20;70.10
44111;DHT22;29774;52.664;5.074;2023-08-06T12:20:44;20.20;70.30
44111;DHT22;29774;52.664;5.074;2023-08-06T12:23:09;20.20;70.20
44111;DHT22;29774;52.664;5.074;2023-08-06T12:25:35;20.20;70.30
44111;DHT22;29774;52.664;5.074;2023-08-06T12:28:01;20.20;70.10
44111;DHT22;29774;52.664;5.074;2023-08-06T12:30:26;20.20;70.00
44111;DHT22;29774;52.664;5.074;2023-08-06T12:32:52;20.20;70.20
44111;DHT22;29774;52.664;5.074;2023-08-06T12:35:18;20.20;70.10
44111;DHT22;29774;52.664;5.074;2023-08-06T12:37:45;20.20;70.00
44111;DHT22;29774;52.664;5.074;2023-08-06T12:40:11;20.20;69.90
44111;DHT22;29774;52.664;5.074;2023-08-06T12:42:36;20.20;70.00
44111;DHT22;29774;52.664;5.074;2023-08-06T12:45:02;20.20;70.10
44111;DHT22;29774;52.664;5.074;2023-08-06T12:47:28;20.20;70.10
44111;DHT22;29774;52.664;5.074;2023-08-06T12:49:53;20.20;70.00
44111;DHT22;29774;52.664;5.074;2023-08-06T12:52:19;20.30;69.90
44111;DHT22;29774;52.664;5.074;2023-08-06T12:54:45;20.30;70.00
44111;DHT22;29774;52.664;5.074;2023-08-06T12:57:11;20.30;70.00
44111;DHT22;29774;52.664;5.074;2023-08-06T12:59:37;20.30;69.80
44111;DHT22;29774;52.664;5.074;2023-08-06T13:02:03;20.20;70.10
44111;DHT22;29774;52.664;5.074;2023-08-06T13:04:29;20.20;70.10
44111;DHT22;29774;52.664;5.074;2023-08-06T13:06:54;20.20;70.00
44111;DHT22;29774;52.664;5.074;2023-08-06T13:09:20;20.20;70.00
44111;DHT22;29774;52.664;5.074;2023-08-06T13:11:46;20.30;69.80
44111;DHT22;29774;52.664;5.074;2023-08-06T13:14:15;20.20;70.00
44111;DHT22;29774;52.664;5.074;2023-08-06T13:16:42;20.20;70.10
44111;DHT22;29774;52.664;5.074;2023-08-06T13:19:08;20.10;70.40
44111;DHT22;29774;52.664;5.074;2023-08-06T13:24:07;20.20;70.00
44111;DHT22;29774;52.664;5.074;2023-08-06T13:26:33;20.20;69.90
44111;DHT22;29774;52.664;5.074;2023-08-06T13:29:00;20.20;69.80
44111;DHT22;29774;52.664;5.074;2023-08-06T13:31:26;20.30;69.70
44111;DHT22;29774;52.664;5.074;2023-08-06T13:33:56;20.30;69.60
44111;DHT22;29774;52.664;5.074;2023-08-06T13:36:23;20.40;69.50
44111;DHT22;29774;52.664;5.074;2023-08-06T13:38:49;20.30;69.70
44111;DHT22;29774;52.664;5.074;2023-08-06T13:41:15;20.30;69.70
44111;DHT22;29774;52.664;5.074;2023-08-06T13:43:41;20.20;70.00
44111;DHT22;29774;52.664;5.074;2023-08-06T13:46:06;20.20;69.90
44111;DHT22;29774;52.664;5.074;2023-08-06T13:48:32;20.30;69.70
44111;DHT22;29774;52.664;5.074;2023-08-06T13:50:58;20.30;69.70
44111;DHT22;29774;52.664;5.074;2023-08-06T13:53:24;20.30;69.60
44111;DHT22;29774;52.664;5.074;2023-08-06T13:55:55;20.20;69.90
44111;DHT22;29774;52.664;5.074;2023-08-06T13:58:21;20.20;69.70
44111;DHT22;29774;52.664;5.074;2023-08-06T14:00:46;20.30;69.30
44111;DHT22;29774;52.664;5.074;2023-08-06T14:03:12;20.30;69.50
44111;DHT22;29774;52.664;5.074;2023-08-06T14:05:37;20.30;69.70
44111;DHT22;29774;52.664;5.074;2023-08-06T14:08:03;20.30;70.10
44111;DHT22;29774;52.664;5.074;2023-08-06T14:10:29;20.30;69.60
44111;DHT22;29774;52.664;5.074;2023-08-06T14:12:54;20.30;69.50
44111;DHT22;29774;52.664;5.074;2023-08-06T14:15:20;20.40;69.50
44111;DHT22;29774;52.664;5.074;2023-08-06T14:17:45;20.30;69.70
44111;DHT22;29774;52.664;5.074;2023-08-06T14:20:11;20.40;69.80
44111;DHT22;29774;52.664;5.074;2023-08-06T14:22:37;20.30;69.80
44111;DHT22;29774;52.664;5.074;2023-08-06T14:25:04;20.30;69.80
44111;DHT22;29774;52.664;5.074;2023-08-06T14:27:29;20.30;70.00
44111;DHT22;29774;52.664;5.074;2023-08-06T14:29:55;20.20;69.90
44111;DHT22;29774;52.664;5.074;2023-08-06T14:32:21;20.20;70.00
44111;DHT22;29774;52.664;5.074;2023-08-06T14:34:47;20.20;70.10
44111;DHT22;29774;52.664;5.074;2023-08-06T14:37:12;20.00;70.40
44111;DHT22;29774;52.664;5.074;2023-08-06T14:39:38;20.00;70.40
44111;DHT22;29774;52.664;5.074;2023-08-06T14:42:04;19.90;71.00
44111;DHT22;29774;52.664;5.074;2023-08-06T14:44:30;20.10;70.50
44111;DHT22;29774;52.664;5.074;2023-08-06T14:46:56;20.00;70.50
44111;DHT22;29774;52.664;5.074;2023-08-06T14:49:23;20.00;70.40
44111;DHT22;29774;52.664;5.074;2023-08-06T14:51:48;20.20;70.30
44111;DHT22;29774;52.664;5.074;2023-08-06T14:54:14;20.20;70.00
44111;DHT22;29774;52.664;5.074;2023-08-06T14:56:39;20.20;70.20
44111;DHT22;29774;52.664;5.074;2023-08-06T14:59:05;20.30;69.80
44111;DHT22;29774;52.664;5.074;2023-08-06T15:01:31;20.30;69.60
44111;DHT22;29774;52.664;5.074;2023-08-06T15:03:56;20.30;69.50
44111;DHT22;29774;52.664;5.074;2023-08-06T15:06:22;20.20;70.00
44111;DHT22;29774;52.664;5.074;2023-08-06T15:08:48;20.20;69.50
44111;DHT22;29774;52.664;5.074;2023-08-06T15:11:14;20.20;69.50
44111;DHT22;29774;52.664;5.074;2023-08-06T15:13:40;20.20;69.70
44111;DHT22;29774;52.664;5.074;2023-08-06T15:16:06;20.20;69.80
44111;DHT22;29774;52.664;5.074;2023-08-06T15:18:31;20.20;69.40
44111;DHT22;29774;52.664;5.074;2023-08-06T15:20:57;20.20;69.50
44111;DHT22;29774;52.664;5.074;2023-08-06T15:23:23;20.20;69.40
44111;DHT22;29774;52.664;5.074;2023-08-06T15:25:49;20.30;69.50
44111;DHT22;29774;52.664;5.074;2023-08-06T15:28:15;20.20;69.80
44111;DHT22;29774;52.664;5.074;2023-08-06T15:30:48;20.20;69.50
44111;DHT22;29774;52.664;5.074;2023-08-06T15:33:14;20.20;69.40
44111;DHT22;29774;52.664;5.074;2023-08-06T15:35:40;20.30;69.30
44111;DHT22;29774;52.664;5.074;2023-08-06T15:38:05;20.40;69.20
44111;DHT22;29774;52.664;5.074;2023-08-06T15:40:31;20.40;69.30
44111;DHT22;29774;52.664;5.074;2023-08-06T15:42:57;20.30;69.10